Flight Number: EUR1208 Duration: 2:15
Departure: Riga Int'l Airport (EVRA) at 18:15 Distance: 733 Nm
Arrival: Ljubljana Airport (LJLJ) at 20:30 Equipment: A321

Weather Information
Riga International Airport, Latvia (EVRA) 56-55N 023-58E Jan 23, 2018 - 04:20 AM EST / 2018.01.23 0920 UTC
Wind: from the SSW (210 degrees) at 13 MPH (11 KT):0
Visibility: 5 mile(s):0
Sky conditions: overcast Temperature: 19 F (-7 C)
Windchill: 6 F (-14 C):1 Dew Point: 17 F (-8 C) Relative Humidity: 92% Pressure (altimeter): 30.27 in. Hg (1025 hPa)
ob: EVRA 230920Z 21011KT 9000 OVC006 M07/M08 Q1025 R18/490195 NOSIG cycle: 9
Sunrise: 06:43 Sunset: 14:28 (UTC)

Ljubljana / Brnik, Slovenia (LJLJ) 46-13N 014-29E 362M Jan 23, 2018 - 04:30 AM EST / 2018.01.23 0930 UTC
Wind: from the ESE (110 degrees) at 3 MPH (3 KT) (direction variable):0
Visibility: greater than 7 mile(s):0
Sky conditions: mostly clear Temperature: 35 F (2 C) Dew Point: 28 F (-2 C) Relative Humidity: 74% Pressure (altimeter): 30.21 in. Hg (1023 hPa)
ob: LJLJ 230930Z 11003KT 020V140 9999 FEW060 02/M02 Q1023 NOSIG cycle: 9
Sunrise: 06:37 Sunset: 15:50 (UTC)

TAF:2018/01/23 09:03 TAF TAF LJLJ 230800Z 2309/2409 29003KT 9999 FEW060 TEMPO 2311/2315 12005KT

Previous Pireps for this route
Date Aircraft Flight time Fuel used Landing rate On time
2013-01-26A32102.1012832-381No
2013-03-13A3212.1814340-195No
2013-03-21A32102.1513884-249Yes
2013-08-17A32102.3115619-184No
2013-10-21A32102.1113288-150Yes
2014-07-01B73702.1912161-215Yes
2014-10-15A32102.0612297-231Yes
(pireps marked green are flown by you)

Route map